sensor_id;sensor_type;location;lat;lon;timestamp;P1;durP1;ratioP1;P2;durP2;ratioP2
36241;SDS011;22283;42.748;12.732;2022-10-22T00:03:14;15.10;;;8.47;;
36241;SDS011;22283;42.748;12.732;2022-10-22T00:08:15;15.67;;;8.87;;
36241;SDS011;22283;42.748;12.732;2022-10-22T00:13:15;18.37;;;9.17;;
36241;SDS011;22283;42.748;12.732;2022-10-22T00:18:17;12.52;;;8.45;;
36241;SDS011;22283;42.748;12.732;2022-10-22T00:23:17;13.77;;;9.60;;
36241;SDS011;22283;42.748;12.732;2022-10-22T00:28:18;13.77;;;9.03;;
36241;SDS011;22283;42.748;12.732;2022-10-22T00:33:19;12.77;;;8.07;;
36241;SDS011;22283;42.748;12.732;2022-10-22T00:38:20;16.00;;;8.95;;
36241;SDS011;22283;42.748;12.732;2022-10-22T00:43:21;12.32;;;8.88;;
36241;SDS011;22283;42.748;12.732;2022-10-22T00:48:25;10.13;;;7.77;;
36241;SDS011;22283;42.748;12.732;2022-10-22T00:53:33;27.85;;;16.63;;
36241;SDS011;22283;42.748;12.732;2022-10-22T00:58:38;14.93;;;9.82;;
36241;SDS011;22283;42.748;12.732;2022-10-22T01:03:43;10.45;;;8.20;;
36241;SDS011;22283;42.748;12.732;2022-10-22T01:19:31;12.13;;;7.75;;
36241;SDS011;22283;42.748;12.732;2022-10-22T01:24:52;10.45;;;7.13;;
36241;SDS011;22283;42.748;12.732;2022-10-22T01:29:59;11.30;;;6.63;;
36241;SDS011;22283;42.748;12.732;2022-10-22T01:35:07;6.85;;;5.88;;
36241;SDS011;22283;42.748;12.732;2022-10-22T01:40:10;11.43;;;5.90;;
36241;SDS011;22283;42.748;12.732;2022-10-22T01:45:13;8.57;;;5.07;;
36241;SDS011;22283;42.748;12.732;2022-10-22T01:55:50;9.70;;;5.47;;
36241;SDS011;22283;42.748;12.732;2022-10-22T02:00:56;7.68;;;4.95;;
36241;SDS011;22283;42.748;12.732;2022-10-22T02:06:06;8.90;;;5.78;;
36241;SDS011;22283;42.748;12.732;2022-10-22T02:11:16;7.32;;;5.88;;
36241;SDS011;22283;42.748;12.732;2022-10-22T02:16:17;24.08;;;5.53;;
36241;SDS011;22283;42.748;12.732;2022-10-22T02:21:23;8.75;;;5.00;;
36241;SDS011;22283;42.748;12.732;2022-10-22T02:26:27;6.55;;;4.50;;
36241;SDS011;22283;42.748;12.732;2022-10-22T02:31:34;6.97;;;4.82;;
36241;SDS011;22283;42.748;12.732;2022-10-22T02:36:38;9.93;;;4.97;;
36241;SDS011;22283;42.748;12.732;2022-10-22T02:41:41;9.45;;;4.38;;
36241;SDS011;22283;42.748;12.732;2022-10-22T02:46:42;7.65;;;4.80;;
36241;SDS011;22283;42.748;12.732;2022-10-22T02:51:43;8.65;;;4.63;;
36241;SDS011;22283;42.748;12.732;2022-10-22T02:56:43;6.93;;;4.63;;
36241;SDS011;22283;42.748;12.732;2022-10-22T03:01:44;7.60;;;4.50;;
36241;SDS011;22283;42.748;12.732;2022-10-22T03:06:44;7.03;;;4.23;;
36241;SDS011;22283;42.748;12.732;2022-10-22T03:11:47;14.32;;;4.30;;
36241;SDS011;22283;42.748;12.732;2022-10-22T03:16:48;8.83;;;4.37;;
36241;SDS011;22283;42.748;12.732;2022-10-22T03:21:50;6.23;;;4.53;;
36241;SDS011;22283;42.748;12.732;2022-10-22T03:26:54;7.20;;;4.07;;
36241;SDS011;22283;42.748;12.732;2022-10-22T03:31:55;7.03;;;4.73;;
36241;SDS011;22283;42.748;12.732;2022-10-22T03:36:56;7.33;;;4.40;;
36241;SDS011;22283;42.748;12.732;2022-10-22T03:41:59;9.02;;;4.70;;
36241;SDS011;22283;42.748;12.732;2022-10-22T03:47:00;7.65;;;4.90;;
36241;SDS011;22283;42.748;12.732;2022-10-22T03:52:05;8.50;;;4.60;;
36241;SDS011;22283;42.748;12.732;2022-10-22T03:57:10;11.18;;;4.82;;
36241;SDS011;22283;42.748;12.732;2022-10-22T04:02:11;7.17;;;4.00;;
36241;SDS011;22283;42.748;12.732;2022-10-22T04:07:12;7.70;;;4.00;;
36241;SDS011;22283;42.748;12.732;2022-10-22T04:12:13;8.10;;;4.23;;
36241;SDS011;22283;42.748;12.732;2022-10-22T04:17:14;7.37;;;5.13;;
36241;SDS011;22283;42.748;12.732;2022-10-22T04:22:14;30.65;;;5.32;;
36241;SDS011;22283;42.748;12.732;2022-10-22T04:27:15;7.97;;;4.03;;
36241;SDS011;22283;42.748;12.732;2022-10-22T04:32:16;7.27;;;4.00;;
36241;SDS011;22283;42.748;12.732;2022-10-22T04:37:16;7.70;;;3.90;;
36241;SDS011;22283;42.748;12.732;2022-10-22T04:42:17;8.50;;;4.30;;
36241;SDS011;22283;42.748;12.732;2022-10-22T04:47:18;8.80;;;4.50;;
36241;SDS011;22283;42.748;12.732;2022-10-22T04:52:18;5.70;;;3.63;;
36241;SDS011;22283;42.748;12.732;2022-10-22T04:57:19;7.33;;;4.00;;
36241;SDS011;22283;42.748;12.732;2022-10-22T05:02:19;8.80;;;4.63;;
36241;SDS011;22283;42.748;12.732;2022-10-22T05:07:27;6.80;;;3.92;;
36241;SDS011;22283;42.748;12.732;2022-10-22T05:12:27;7.50;;;3.92;;
36241;SDS011;22283;42.748;12.732;2022-10-22T05:17:30;7.30;;;3.78;;
36241;SDS011;22283;42.748;12.732;2022-10-22T05:22:30;10.40;;;4.07;;
36241;SDS011;22283;42.748;12.732;2022-10-22T05:27:33;11.90;;;4.60;;
36241;SDS011;22283;42.748;12.732;2022-10-22T05:32:34;9.23;;;4.53;;
36241;SDS011;22283;42.748;12.732;2022-10-22T05:37:35;8.90;;;4.10;;
36241;SDS011;22283;42.748;12.732;2022-10-22T05:42:35;7.93;;;4.30;;
36241;SDS011;22283;42.748;12.732;2022-10-22T05:47:36;8.77;;;4.30;;
36241;SDS011;22283;42.748;12.732;2022-10-22T05:52:36;7.87;;;3.50;;
36241;SDS011;22283;42.748;12.732;2022-10-22T05:57:38;9.40;;;4.13;;
36241;SDS011;22283;42.748;12.732;2022-10-22T06:02:39;12.35;;;4.70;;
36241;SDS011;22283;42.748;12.732;2022-10-22T06:07:39;8.83;;;4.13;;
36241;SDS011;22283;42.748;12.732;2022-10-22T06:12:40;7.65;;;4.30;;
36241;SDS011;22283;42.748;12.732;2022-10-22T06:17:43;10.87;;;3.73;;
36241;SDS011;22283;42.748;12.732;2022-10-22T06:22:44;10.52;;;4.50;;
36241;SDS011;22283;42.748;12.732;2022-10-22T06:27:48;11.43;;;4.55;;
36241;SDS011;22283;42.748;12.732;2022-10-22T06:32:50;12.25;;;4.28;;
36241;SDS011;22283;42.748;12.732;2022-10-22T06:37:51;11.77;;;4.10;;
36241;SDS011;22283;42.748;12.732;2022-10-22T06:42:51;9.50;;;3.53;;
36241;SDS011;22283;42.748;12.732;2022-10-22T06:47:52;6.90;;;4.13;;
36241;SDS011;22283;42.748;12.732;2022-10-22T06:52:53;11.27;;;4.05;;
36241;SDS011;22283;42.748;12.732;2022-10-22T06:57:54;15.83;;;4.00;;
36241;SDS011;22283;42.748;12.732;2022-10-22T07:02:55;14.75;;;5.38;;
36241;SDS011;22283;42.748;12.732;2022-10-22T07:07:56;9.32;;;4.50;;
36241;SDS011;22283;42.748;12.732;2022-10-22T07:12:56;10.77;;;3.73;;
36241;SDS011;22283;42.748;12.732;2022-10-22T07:17:58;15.63;;;4.38;;
36241;SDS011;22283;42.748;12.732;2022-10-22T07:22:58;6.27;;;3.20;;
36241;SDS011;22283;42.748;12.732;2022-10-22T07:27:59;11.33;;;3.83;;
36241;SDS011;22283;42.748;12.732;2022-10-22T07:33:00;15.43;;;4.35;;
36241;SDS011;22283;42.748;12.732;2022-10-22T07:38:00;13.45;;;4.15;;
36241;SDS011;22283;42.748;12.732;2022-10-22T07:43:01;24.23;;;4.33;;
36241;SDS011;22283;42.748;12.732;2022-10-22T07:48:03;13.25;;;4.07;;
36241;SDS011;22283;42.748;12.732;2022-10-22T07:53:04;10.70;;;3.97;;
36241;SDS011;22283;42.748;12.732;2022-10-22T07:58:04;10.87;;;3.90;;
36241;SDS011;22283;42.748;12.732;2022-10-22T08:03:05;18.73;;;3.95;;
36241;SDS011;22283;42.748;12.732;2022-10-22T08:08:06;11.15;;;4.35;;
36241;SDS011;22283;42.748;12.732;2022-10-22T08:13:06;11.13;;;3.97;;
36241;SDS011;22283;42.748;12.732;2022-10-22T08:18:07;10.05;;;3.92;;
36241;SDS011;22283;42.748;12.732;2022-10-22T08:23:08;17.95;;;3.00;;
36241;SDS011;22283;42.748;12.732;2022-10-22T08:28:09;10.88;;;3.35;;
36241;SDS011;22283;42.748;12.732;2022-10-22T08:33:09;7.63;;;2.80;;
36241;SDS011;22283;42.748;12.732;2022-10-22T08:38:10;8.63;;;3.58;;
36241;SDS011;22283;42.748;12.732;2022-10-22T08:48:57;10.20;;;3.50;;
36241;SDS011;22283;42.748;12.732;2022-10-22T09:04:27;9.48;;;3.80;;
36241;SDS011;22283;42.748;12.732;2022-10-22T09:09:30;11.27;;;3.95;;
36241;SDS011;22283;42.748;12.732;2022-10-22T09:14:36;10.00;;;4.13;;
36241;SDS011;22283;42.748;12.732;2022-10-22T09:19:46;9.25;;;3.70;;
36241;SDS011;22283;42.748;12.732;2022-10-22T09:25:13;10.10;;;4.07;;
36241;SDS011;22283;42.748;12.732;2022-10-22T09:30:27;14.27;;;3.83;;
36241;SDS011;22283;42.748;12.732;2022-10-22T09:35:29;10.55;;;3.78;;
36241;SDS011;22283;42.748;12.732;2022-10-22T09:40:43;11.27;;;3.60;;
36241;SDS011;22283;42.748;12.732;2022-10-22T09:45:54;12.40;;;3.83;;
36241;SDS011;22283;42.748;12.732;2022-10-22T09:56:25;14.43;;;4.00;;
36241;SDS011;22283;42.748;12.732;2022-10-22T10:01:29;14.55;;;3.92;;
36241;SDS011;22283;42.748;12.732;2022-10-22T10:06:33;12.23;;;3.85;;
36241;SDS011;22283;42.748;12.732;2022-10-22T10:11:41;13.13;;;3.90;;
36241;SDS011;22283;42.748;12.732;2022-10-22T10:58:47;12.48;;;3.97;;
36241;SDS011;22283;42.748;12.732;2022-10-22T11:25:20;11.82;;;4.55;;
36241;SDS011;22283;42.748;12.732;2022-10-22T11:30:25;18.27;;;4.82;;
36241;SDS011;22283;42.748;12.732;2022-10-22T11:35:49;16.23;;;3.72;;
36241;SDS011;22283;42.748;12.732;2022-10-22T11:40:55;17.60;;;4.22;;
36241;SDS011;22283;42.748;12.732;2022-10-22T11:51:29;13.38;;;4.50;;
36241;SDS011;22283;42.748;12.732;2022-10-22T11:56:37;11.68;;;3.67;;
36241;SDS011;22283;42.748;12.732;2022-10-22T12:01:39;17.35;;;3.53;;
36241;SDS011;22283;42.748;12.732;2022-10-22T12:06:57;15.00;;;4.32;;
36241;SDS011;22283;42.748;12.732;2022-10-22T12:12:04;13.35;;;4.18;;
36241;SDS011;22283;42.748;12.732;2022-10-22T12:17:13;17.98;;;4.30;;
36241;SDS011;22283;42.748;12.732;2022-10-22T12:22:17;12.98;;;4.55;;
36241;SDS011;22283;42.748;12.732;2022-10-22T12:27:21;14.48;;;4.78;;
36241;SDS011;22283;42.748;12.732;2022-10-22T12:32:34;20.40;;;4.32;;
36241;SDS011;22283;42.748;12.732;2022-10-22T12:37:36;17.98;;;3.75;;
36241;SDS011;22283;42.748;12.732;2022-10-22T12:42:38;12.93;;;3.72;;
36241;SDS011;22283;42.748;12.732;2022-10-22T12:47:49;13.60;;;5.13;;
36241;SDS011;22283;42.748;12.732;2022-10-22T12:52:51;16.08;;;4.78;;
36241;SDS011;22283;42.748;12.732;2022-10-22T12:57:54;21.73;;;4.65;;
36241;SDS011;22283;42.748;12.732;2022-10-22T13:13:02;18.20;;;4.55;;
36241;SDS011;22283;42.748;12.732;2022-10-22T13:18:19;15.00;;;4.40;;
36241;SDS011;22283;42.748;12.732;2022-10-22T13:23:24;18.75;;;5.28;;
36241;SDS011;22283;42.748;12.732;2022-10-22T13:28:26;18.17;;;4.75;;
36241;SDS011;22283;42.748;12.732;2022-10-22T13:33:34;14.13;;;4.60;;
36241;SDS011;22283;42.748;12.732;2022-10-22T13:38:37;13.40;;;4.30;;
36241;SDS011;22283;42.748;12.732;2022-10-22T13:48:38;14.20;;;5.30;;
36241;SDS011;22283;42.748;12.732;2022-10-22T13:53:40;12.13;;;4.50;;
36241;SDS011;22283;42.748;12.732;2022-10-22T13:58:43;18.35;;;4.68;;
36241;SDS011;22283;42.748;12.732;2022-10-22T14:03:46;10.75;;;4.15;;
36241;SDS011;22283;42.748;12.732;2022-10-22T14:08:48;18.60;;;4.85;;
36241;SDS011;22283;42.748;12.732;2022-10-22T14:13:55;16.95;;;5.20;;
36241;SDS011;22283;42.748;12.732;2022-10-22T14:18:56;16.40;;;5.20;;
36241;SDS011;22283;42.748;12.732;2022-10-22T14:23:57;18.90;;;4.57;;
36241;SDS011;22283;42.748;12.732;2022-10-22T14:33:59;13.20;;;5.03;;
36241;SDS011;22283;42.748;12.732;2022-10-22T14:44:00;19.20;;;5.68;;
36241;SDS011;22283;42.748;12.732;2022-10-22T14:54:02;14.55;;;4.53;;
36241;SDS011;22283;42.748;12.732;2022-10-22T14:59:03;16.40;;;4.78;;
36241;SDS011;22283;42.748;12.732;2022-10-22T15:09:04;12.50;;;4.88;;
36241;SDS011;22283;42.748;12.732;2022-10-22T15:14:05;19.50;;;4.50;;
36241;SDS011;22283;42.748;12.732;2022-10-22T15:19:05;17.02;;;4.90;;
36241;SDS011;22283;42.748;12.732;2022-10-22T15:24:06;15.98;;;4.68;;
36241;SDS011;22283;42.748;12.732;2022-10-22T15:29:07;15.13;;;5.10;;
36241;SDS011;22283;42.748;12.732;2022-10-22T15:34:07;15.65;;;5.13;;
36241;SDS011;22283;42.748;12.732;2022-10-22T15:39:08;14.70;;;5.35;;
36241;SDS011;22283;42.748;12.732;2022-10-22T15:49:37;13.73;;;5.45;;
36241;SDS011;22283;42.748;12.732;2022-10-22T15:54:38;10.85;;;4.95;;
36241;SDS011;22283;42.748;12.732;2022-10-22T15:59:40;16.23;;;6.05;;
36241;SDS011;22283;42.748;12.732;2022-10-22T16:04:40;14.68;;;5.68;;
36241;SDS011;22283;42.748;12.732;2022-10-22T16:09:41;17.52;;;6.35;;
36241;SDS011;22283;42.748;12.732;2022-10-22T16:14:42;16.35;;;5.32;;
36241;SDS011;22283;42.748;12.732;2022-10-22T16:19:42;13.60;;;5.70;;
36241;SDS011;22283;42.748;12.732;2022-10-22T16:24:43;17.08;;;6.88;;
36241;SDS011;22283;42.748;12.732;2022-10-22T16:29:44;15.67;;;5.10;;
36241;SDS011;22283;42.748;12.732;2022-10-22T16:34:44;16.15;;;5.75;;
36241;SDS011;22283;42.748;12.732;2022-10-22T16:39:45;17.57;;;6.33;;
36241;SDS011;22283;42.748;12.732;2022-10-22T16:44:45;18.33;;;7.07;;
36241;SDS011;22283;42.748;12.732;2022-10-22T16:49:46;12.88;;;6.32;;
36241;SDS011;22283;42.748;12.732;2022-10-22T16:54:47;19.33;;;6.90;;
36241;SDS011;22283;42.748;12.732;2022-10-22T16:59:47;27.43;;;8.43;;
36241;SDS011;22283;42.748;12.732;2022-10-22T17:04:48;27.73;;;9.30;;
36241;SDS011;22283;42.748;12.732;2022-10-22T17:09:49;18.38;;;8.07;;
36241;SDS011;22283;42.748;12.732;2022-10-22T17:14:49;35.43;;;11.80;;
36241;SDS011;22283;42.748;12.732;2022-10-22T17:19:50;21.13;;;10.90;;
36241;SDS011;22283;42.748;12.732;2022-10-22T17:25:05;26.93;;;9.37;;
36241;SDS011;22283;42.748;12.732;2022-10-22T17:30:07;17.90;;;10.38;;
36241;SDS011;22283;42.748;12.732;2022-10-22T17:35:13;17.98;;;10.82;;
36241;SDS011;22283;42.748;12.732;2022-10-22T17:40:15;21.35;;;11.10;;
36241;SDS011;22283;42.748;12.732;2022-10-22T17:45:16;24.13;;;11.93;;
36241;SDS011;22283;42.748;12.732;2022-10-22T17:50:19;21.73;;;10.40;;
36241;SDS011;22283;42.748;12.732;2022-10-22T17:55:20;21.85;;;10.50;;
36241;SDS011;22283;42.748;12.732;2022-10-22T18:00:20;20.20;;;10.87;;
36241;SDS011;22283;42.748;12.732;2022-10-22T18:05:23;18.08;;;9.20;;
36241;SDS011;22283;42.748;12.732;2022-10-22T18:10:23;26.60;;;11.32;;
36241;SDS011;22283;42.748;12.732;2022-10-22T18:15:24;15.87;;;9.97;;
36241;SDS011;22283;42.748;12.732;2022-10-22T18:20:25;27.03;;;13.03;;
36241;SDS011;22283;42.748;12.732;2022-10-22T18:25:25;13.77;;;8.07;;
36241;SDS011;22283;42.748;12.732;2022-10-22T18:30:26;18.13;;;10.33;;
36241;SDS011;22283;42.748;12.732;2022-10-22T18:35:30;15.30;;;7.93;;
36241;SDS011;22283;42.748;12.732;2022-10-22T18:40:31;20.75;;;8.35;;
36241;SDS011;22283;42.748;12.732;2022-10-22T18:45:32;17.80;;;6.85;;
36241;SDS011;22283;42.748;12.732;2022-10-22T18:50:32;29.87;;;7.03;;
36241;SDS011;22283;42.748;12.732;2022-10-22T18:55:33;15.53;;;6.90;;
36241;SDS011;22283;42.748;12.732;2022-10-22T19:00:37;13.35;;;5.63;;
36241;SDS011;22283;42.748;12.732;2022-10-22T19:05:56;14.77;;;6.67;;
36241;SDS011;22283;42.748;12.732;2022-10-22T19:10:59;11.43;;;7.05;;
36241;SDS011;22283;42.748;12.732;2022-10-22T19:16:00;14.57;;;6.15;;
36241;SDS011;22283;42.748;12.732;2022-10-22T19:21:02;21.65;;;6.88;;
36241;SDS011;22283;42.748;12.732;2022-10-22T19:26:03;17.42;;;9.52;;
36241;SDS011;22283;42.748;12.732;2022-10-22T19:31:08;19.48;;;8.65;;
36241;SDS011;22283;42.748;12.732;2022-10-22T19:36:16;17.27;;;7.68;;
36241;SDS011;22283;42.748;12.732;2022-10-22T19:41:19;17.85;;;8.88;;
36241;SDS011;22283;42.748;12.732;2022-10-22T19:46:21;20.75;;;9.18;;
36241;SDS011;22283;42.748;12.732;2022-10-22T19:51:23;17.92;;;8.23;;
36241;SDS011;22283;42.748;12.732;2022-10-22T19:56:25;21.00;;;8.95;;
36241;SDS011;22283;42.748;12.732;2022-10-22T20:01:27;19.10;;;8.55;;
36241;SDS011;22283;42.748;12.732;2022-10-22T20:06:27;15.03;;;7.93;;
36241;SDS011;22283;42.748;12.732;2022-10-22T20:11:29;15.23;;;8.82;;
36241;SDS011;22283;42.748;12.732;2022-10-22T20:16:29;16.97;;;9.03;;
36241;SDS011;22283;42.748;12.732;2022-10-22T20:21:30;19.07;;;11.70;;
36241;SDS011;22283;42.748;12.732;2022-10-22T20:26:31;17.85;;;8.85;;
36241;SDS011;22283;42.748;12.732;2022-10-22T20:31:32;16.70;;;8.68;;
36241;SDS011;22283;42.748;12.732;2022-10-22T20:36:32;17.67;;;8.87;;
36241;SDS011;22283;42.748;12.732;2022-10-22T20:41:33;10.87;;;7.50;;
36241;SDS011;22283;42.748;12.732;2022-10-22T20:46:39;20.88;;;7.63;;
36241;SDS011;22283;42.748;12.732;2022-10-22T20:51:40;11.83;;;6.93;;
36241;SDS011;22283;42.748;12.732;2022-10-22T20:56:41;15.60;;;7.65;;
36241;SDS011;22283;42.748;12.732;2022-10-22T21:01:43;14.05;;;7.47;;
36241;SDS011;22283;42.748;12.732;2022-10-22T21:06:47;17.65;;;7.80;;
36241;SDS011;22283;42.748;12.732;2022-10-22T21:11:49;19.40;;;6.57;;
36241;SDS011;22283;42.748;12.732;2022-10-22T21:16:52;10.65;;;6.47;;
36241;SDS011;22283;42.748;12.732;2022-10-22T21:21:53;14.27;;;6.28;;
36241;SDS011;22283;42.748;12.732;2022-10-22T21:26:54;10.60;;;5.68;;
36241;SDS011;22283;42.748;12.732;2022-10-22T21:31:54;15.77;;;6.70;;
36241;SDS011;22283;42.748;12.732;2022-10-22T21:36:55;16.43;;;5.90;;
36241;SDS011;22283;42.748;12.732;2022-10-22T21:41:56;9.70;;;5.63;;
36241;SDS011;22283;42.748;12.732;2022-10-22T21:46:56;17.27;;;6.10;;
36241;SDS011;22283;42.748;12.732;2022-10-22T21:51:57;17.27;;;6.63;;
36241;SDS011;22283;42.748;12.732;2022-10-22T21:56:59;12.80;;;5.93;;
36241;SDS011;22283;42.748;12.732;2022-10-22T22:02:00;11.27;;;5.38;;
36241;SDS011;22283;42.748;12.732;2022-10-22T22:07:01;12.45;;;6.10;;
36241;SDS011;22283;42.748;12.732;2022-10-22T22:12:01;9.80;;;5.27;;
36241;SDS011;22283;42.748;12.732;2022-10-22T22:22:03;15.02;;;5.82;;
36241;SDS011;22283;42.748;12.732;2022-10-22T22:27:04;7.47;;;5.43;;
36241;SDS011;22283;42.748;12.732;2022-10-22T22:32:04;14.60;;;6.47;;
36241;SDS011;22283;42.748;12.732;2022-10-22T22:37:06;9.98;;;6.97;;
36241;SDS011;22283;42.748;12.732;2022-10-22T22:42:07;18.00;;;6.60;;
36241;SDS011;22283;42.748;12.732;2022-10-22T22:47:07;12.33;;;5.70;;
36241;SDS011;22283;42.748;12.732;2022-10-22T22:52:08;15.40;;;6.47;;
36241;SDS011;22283;42.748;12.732;2022-10-22T22:57:09;14.95;;;7.18;;
36241;SDS011;22283;42.748;12.732;2022-10-22T23:02:09;13.95;;;6.55;;
36241;SDS011;22283;42.748;12.732;2022-10-22T23:07:10;22.60;;;7.07;;
36241;SDS011;22283;42.748;12.732;2022-10-22T23:12:11;16.50;;;7.30;;
36241;SDS011;22283;42.748;12.732;2022-10-22T23:17:11;18.03;;;7.20;;
36241;SDS011;22283;42.748;12.732;2022-10-22T23:22:12;16.33;;;7.93;;
36241;SDS011;22283;42.748;12.732;2022-10-22T23:27:13;12.55;;;7.25;;
36241;SDS011;22283;42.748;12.732;2022-10-22T23:32:13;21.80;;;7.60;;
36241;SDS011;22283;42.748;12.732;2022-10-22T23:37:14;14.05;;;6.63;;
36241;SDS011;22283;42.748;12.732;2022-10-22T23:42:15;18.97;;;7.43;;
36241;SDS011;22283;42.748;12.732;2022-10-22T23:47:15;13.47;;;8.03;;
36241;SDS011;22283;42.748;12.732;2022-10-22T23:52:16;16.93;;;7.87;;
36241;SDS011;22283;42.748;12.732;2022-10-22T23:57:17;14.03;;;7.57;;
